createdAt,value
2018-11-07T00:02:31.332Z,6.00
2018-11-07T00:05:02.249Z,6.00
2018-11-07T00:07:33.109Z,6.00
2018-11-07T00:10:03.972Z,6.00
2018-11-07T00:12:34.881Z,6.00
2018-11-07T00:15:05.813Z,6.00
2018-11-07T00:17:36.863Z,5.90
2018-11-07T00:20:09.878Z,5.90
2018-11-07T00:22:41.063Z,5.90
2018-11-07T00:25:12.604Z,5.90
2018-11-07T00:27:43.461Z,5.80
2018-11-07T00:30:14.416Z,4.90
2018-11-07T00:32:45.506Z,5.70
2018-11-07T00:35:16.781Z,5.70
2018-11-07T00:37:47.663Z,5.70
2018-11-07T00:40:18.934Z,5.70
2018-11-07T00:42:49.798Z,5.70
2018-11-07T00:45:20.728Z,5.70
2018-11-07T00:47:51.903Z,5.70
2018-11-07T00:50:23.145Z,5.70
2018-11-07T00:52:54.049Z,5.70
2018-11-07T00:55:24.925Z,5.70
2018-11-07T00:57:55.833Z,5.60
2018-11-07T01:00:26.674Z,5.60
2018-11-07T01:02:57.574Z,5.70
2018-11-07T01:05:28.881Z,5.70
2018-11-07T01:07:59.766Z,5.70
2018-11-07T01:10:30.731Z,5.70
2018-11-07T01:13:01.651Z,5.70
2018-11-07T01:15:32.974Z,5.70
2018-11-07T01:18:03.878Z,5.70
2018-11-07T01:20:34.745Z,5.70
2018-11-07T01:23:05.727Z,5.70
2018-11-07T01:25:36.682Z,5.70
2018-11-07T01:28:07.973Z,5.70
2018-11-07T01:30:38.805Z,5.70
2018-11-07T01:33:09.764Z,5.60
2018-11-07T01:35:40.624Z,5.60
2018-11-07T01:38:30.603Z,5.60
2018-11-07T01:41:01.474Z,5.50
2018-11-07T01:43:32.349Z,5.40
2018-11-07T01:46:03.239Z,5.40
2018-11-07T01:48:34.167Z,5.30
2018-11-07T01:51:05.119Z,5.30
2018-11-07T01:53:36.352Z,5.20
2018-11-07T01:56:07.540Z,5.10
2018-11-07T01:58:38.425Z,5.00
2018-11-07T02:01:09.346Z,5.00
2018-11-07T02:03:40.583Z,5.00
2018-11-07T02:06:12.208Z,5.00
2018-11-07T02:08:43.105Z,5.00
2018-11-07T02:11:14.348Z,5.10
2018-11-07T02:13:45.241Z,5.10
2018-11-07T02:16:16.141Z,5.10
2018-11-07T02:18:47.766Z,5.10
2018-11-07T02:21:19.018Z,5.10
2018-11-07T02:23:49.960Z,5.10
2018-11-07T02:26:21.167Z,5.00
2018-11-07T02:28:52.084Z,5.10
2018-11-07T02:31:24.281Z,5.10
2018-11-07T02:33:55.214Z,5.10
2018-11-07T02:36:26.234Z,5.10
2018-11-07T02:38:57.424Z,5.00
2018-11-07T02:41:28.373Z,5.00
2018-11-07T02:43:59.296Z,4.90
2018-11-07T02:46:30.174Z,4.90
2018-11-07T02:49:01.886Z,4.90
2018-11-07T02:51:33.096Z,4.90
2018-11-07T02:54:05.083Z,4.80
2018-11-07T02:56:36.329Z,4.70
2018-11-07T02:59:07.838Z,4.70
2018-11-07T03:01:38.721Z,4.70
2018-11-07T03:04:09.605Z,4.60
2018-11-07T03:06:40.509Z,4.60
2018-11-07T03:09:11.702Z,4.50
2018-11-07T03:11:42.926Z,4.50
2018-11-07T03:14:14.135Z,4.50
2018-11-07T03:16:45.472Z,4.40
2018-11-07T03:19:16.373Z,4.40
2018-11-07T03:21:47.261Z,4.30
2018-11-07T03:24:18.182Z,4.20
2018-11-07T03:26:49.099Z,4.10
2018-11-07T03:29:20.000Z,4.10
2018-11-07T03:31:50.915Z,4.10
2018-11-07T03:34:21.860Z,4.10
2018-11-07T03:36:52.964Z,4.10
2018-11-07T03:39:23.846Z,4.10
2018-11-07T03:41:55.078Z,4.10
2018-11-07T03:44:26.325Z,4.10
2018-11-07T03:46:57.234Z,4.20
2018-11-07T03:49:28.165Z,4.20
2018-11-07T03:51:59.340Z,4.10
2018-11-07T03:54:30.280Z,4.00
2018-11-07T03:57:01.218Z,4.00
2018-11-07T03:59:32.150Z,4.00
2018-11-07T04:02:03.423Z,3.90
2018-11-07T04:04:35.451Z,3.90
2018-11-07T04:07:06.982Z,3.90
2018-11-07T04:09:37.876Z,3.90
2018-11-07T04:12:08.816Z,3.90
2018-11-07T04:14:39.734Z,3.90
2018-11-07T04:17:10.678Z,4.00
2018-11-07T04:19:41.564Z,4.00
2018-11-07T04:22:12.442Z,4.00
2018-11-07T04:24:43.693Z,3.90
2018-11-07T04:27:14.556Z,3.90
2018-11-07T04:29:45.716Z,3.90
2018-11-07T04:32:16.592Z,3.80
2018-11-07T04:34:47.518Z,3.90
2018-11-07T04:37:18.445Z,4.10
2018-11-07T04:39:49.355Z,4.20
2018-11-07T04:42:20.274Z,4.10
2018-11-07T04:44:51.194Z,4.40
2018-11-07T04:47:22.086Z,4.50
2018-11-07T04:49:53.636Z,4.60
2018-11-07T04:52:24.521Z,4.60
2018-11-07T04:54:55.456Z,4.60
2018-11-07T04:57:26.689Z,4.50
2018-11-07T04:59:57.905Z,4.40
2018-11-07T05:02:29.284Z,4.40
2018-11-07T05:05:00.193Z,4.40
2018-11-07T05:07:31.471Z,4.40
2018-11-07T05:10:02.794Z,4.40
2018-11-07T05:12:33.958Z,4.30
2018-11-07T05:15:04.854Z,4.20
2018-11-07T05:17:35.730Z,4.30
2018-11-07T05:20:08.492Z,4.20
2018-11-07T05:22:39.463Z,4.30
2018-11-07T05:25:11.362Z,4.40
2018-11-07T05:27:43.110Z,4.60
2018-11-07T05:30:14.017Z,4.60
2018-11-07T05:32:45.229Z,4.80
2018-11-07T05:35:16.189Z,4.90
2018-11-07T05:37:47.162Z,4.90
2018-11-07T05:40:18.067Z,4.70
2018-11-07T05:42:48.954Z,4.60
2018-11-07T05:45:19.911Z,4.50
2018-11-07T05:47:51.479Z,4.30
2018-11-07T05:50:22.404Z,4.20
2018-11-07T05:52:53.330Z,4.00
2018-11-07T05:55:24.241Z,3.90
2018-11-07T05:57:55.956Z,3.90
2018-11-07T06:00:26.887Z,3.80
2018-11-07T06:02:57.795Z,3.70
2018-11-07T06:05:28.735Z,3.70
2018-11-07T06:07:59.624Z,3.60
2018-11-07T06:10:30.539Z,3.60
2018-11-07T06:13:02.406Z,3.70
2018-11-07T06:15:33.359Z,3.80
2018-11-07T06:18:04.713Z,3.90
2018-11-07T06:20:35.648Z,3.90
2018-11-07T06:23:06.594Z,3.90
2018-11-07T06:25:37.558Z,3.90
2018-11-07T06:28:11.959Z,3.90
2018-11-07T06:30:42.852Z,3.90
2018-11-07T06:33:13.793Z,3.90
2018-11-07T06:35:44.678Z,3.90
2018-11-07T06:38:15.913Z,3.90
2018-11-07T06:40:47.158Z,3.80
2018-11-07T06:43:18.392Z,3.90
2018-11-07T06:45:50.022Z,3.90
2018-11-07T06:48:20.983Z,4.00
2018-11-07T06:50:51.878Z,4.10
2018-11-07T06:53:22.762Z,4.30
2018-11-07T06:55:53.652Z,4.50
2018-11-07T06:58:24.562Z,4.60
2018-11-07T07:00:55.461Z,4.70
2018-11-07T07:03:26.624Z,4.80
2018-11-07T07:05:57.885Z,4.90
2018-11-07T07:08:29.410Z,5.00
2018-11-07T07:11:00.348Z,5.10
2018-11-07T07:13:31.617Z,5.20
2018-11-07T07:16:02.484Z,5.30
2018-11-07T07:18:33.423Z,5.40
2018-11-07T07:21:04.307Z,5.50
2018-11-07T07:23:35.734Z,5.70
2018-11-07T07:26:06.617Z,5.80
2018-11-07T07:28:38.029Z,5.90
2018-11-07T07:31:08.920Z,6.00
2018-11-07T07:33:40.218Z,6.00
2018-11-07T07:36:11.053Z,6.10
2018-11-07T07:39:01.298Z,6.20
2018-11-07T07:41:32.224Z,6.30
2018-11-07T07:44:03.503Z,6.40
2018-11-07T07:46:34.785Z,6.40
2018-11-07T07:49:06.245Z,6.50
2018-11-07T07:51:37.279Z,6.60
2018-11-07T07:54:08.224Z,6.70
2018-11-07T07:56:39.825Z,6.80
2018-11-07T07:59:10.866Z,7.10
2018-11-07T08:01:42.493Z,7.20
2018-11-07T08:04:13.474Z,7.20
2018-11-07T08:06:44.666Z,7.20
2018-11-07T08:09:15.994Z,7.30
2018-11-07T08:11:46.968Z,7.40
2018-11-07T08:14:17.930Z,7.70
2018-11-07T08:16:49.584Z,7.80
2018-11-07T08:19:20.606Z,7.90
2018-11-07T08:21:51.883Z,8.00
2018-11-07T08:24:23.147Z,8.00
2018-11-07T08:26:54.387Z,8.10
2018-11-07T08:29:25.452Z,8.20
2018-11-07T08:31:56.421Z,8.40
2018-11-07T08:34:27.345Z,8.60
2018-11-07T08:36:58.956Z,8.90
2018-11-07T08:39:29.942Z,9.20
2018-11-07T08:42:00.874Z,9.30
2018-11-07T08:44:31.919Z,9.70
2018-11-07T08:47:02.964Z,10.00
2018-11-07T08:49:33.960Z,10.40
2018-11-07T08:52:04.950Z,10.70
2018-11-07T08:54:36.006Z,10.90
2018-11-07T08:57:07.196Z,11.00
2018-11-07T08:59:38.454Z,11.30
2018-11-07T09:02:09.451Z,11.50
2018-11-07T09:04:40.404Z,11.40
2018-11-07T09:07:11.681Z,11.50
2018-11-07T09:09:42.693Z,11.60
2018-11-07T09:12:13.671Z,11.50
2018-11-07T09:14:44.670Z,11.20
2018-11-07T09:17:15.707Z,10.90
2018-11-07T09:19:46.648Z,10.40
2018-11-07T09:22:17.682Z,10.20
2018-11-07T09:24:48.707Z,10.00
2018-11-07T09:27:19.719Z,9.80
2018-11-07T09:29:51.204Z,9.70
2018-11-07T09:32:22.084Z,9.50
2018-11-07T09:34:53.131Z,9.60
2018-11-07T09:37:24.116Z,9.70
2018-11-07T09:39:55.098Z,9.90
2018-11-07T09:42:27.224Z,10.40
2018-11-07T09:44:58.829Z,10.90
2018-11-07T09:47:29.870Z,11.70
2018-11-07T09:50:00.843Z,12.30
2018-11-07T09:52:31.820Z,12.90
2018-11-07T09:55:02.967Z,13.50
2018-11-07T09:57:34.420Z,13.80
2018-11-07T10:00:05.967Z,14.00
2018-11-07T10:02:37.151Z,14.30
2018-11-07T10:05:09.430Z,14.50
2018-11-07T10:07:41.055Z,14.50
2018-11-07T10:10:14.861Z,14.50
2018-11-07T10:12:46.318Z,14.50
2018-11-07T10:15:17.562Z,14.00
2018-11-07T10:17:48.980Z,13.30
2018-11-07T10:20:21.440Z,12.80
2018-11-07T10:22:52.363Z,12.60
2018-11-07T10:25:23.356Z,12.50
2018-11-07T10:27:55.305Z,12.30
2018-11-07T10:30:26.091Z,12.00
2018-11-07T10:32:57.021Z,11.70
2018-11-07T10:35:28.365Z,11.60
2018-11-07T10:37:59.654Z,11.50
2018-11-07T10:40:30.675Z,11.40
2018-11-07T10:43:02.000Z,11.40
2018-11-07T10:45:33.611Z,11.50
2018-11-07T10:48:04.511Z,11.60
2018-11-07T10:50:35.478Z,11.60
2018-11-07T10:53:06.532Z,11.60
2018-11-07T10:55:37.618Z,11.70
2018-11-07T10:58:08.559Z,11.80
2018-11-07T11:00:57.550Z,12.00
2018-11-07T11:03:28.923Z,12.50
2018-11-07T11:06:00.232Z,12.90
2018-11-07T11:08:31.499Z,13.20
2018-11-07T11:11:02.478Z,13.20
2018-11-07T11:13:33.385Z,13.40
2018-11-07T11:16:04.753Z,13.30
2018-11-07T11:18:35.733Z,13.10
2018-11-07T11:21:07.494Z,13.00
2018-11-07T11:23:38.638Z,13.00
2018-11-07T11:26:09.677Z,12.80
2018-11-07T11:28:40.646Z,12.70
2018-11-07T11:31:11.625Z,12.60
2018-11-07T11:33:42.616Z,12.50
2018-11-07T11:36:13.579Z,12.50
2018-11-07T11:38:47.164Z,12.40
2018-11-07T11:41:18.211Z,12.50
2018-11-07T11:43:49.099Z,12.40
2018-11-07T11:46:20.677Z,12.40
2018-11-07T11:48:52.069Z,12.50
2018-11-07T11:51:23.088Z,12.50
2018-11-07T11:53:54.174Z,12.40
2018-11-07T11:56:25.526Z,12.40
2018-11-07T11:58:56.924Z,12.50
2018-11-07T12:01:27.990Z,12.60
2018-11-07T12:03:59.614Z,12.80
2018-11-07T12:06:31.011Z,13.10
2018-11-07T12:09:02.006Z,13.90
2018-11-07T12:11:33.233Z,14.90
2018-11-07T12:14:04.230Z,15.90
2018-11-07T12:16:35.318Z,16.40
2018-11-07T12:19:06.316Z,17.00
2018-11-07T12:21:37.379Z,17.30
2018-11-07T12:24:08.938Z,17.50
2018-11-07T12:26:40.019Z,17.40
2018-11-07T12:29:10.970Z,17.60
2018-11-07T12:31:42.511Z,17.80
2018-11-07T12:34:13.653Z,18.10
2018-11-07T12:36:45.353Z,18.20
2018-11-07T12:39:17.104Z,18.40
2018-11-07T12:41:48.183Z,18.60
2018-11-07T12:44:19.137Z,18.50
2018-11-07T12:46:50.477Z,18.80
2018-11-07T12:49:21.473Z,18.70
2018-11-07T12:51:52.478Z,18.40
2018-11-07T12:54:23.458Z,17.80
2018-11-07T12:56:54.646Z,18.00
2018-11-07T12:59:25.782Z,18.30
2018-11-07T13:01:56.772Z,18.40
2018-11-07T13:04:27.723Z,18.50
2018-11-07T13:06:58.725Z,18.50
2018-11-07T13:09:30.046Z,18.40
2018-11-07T13:12:01.301Z,18.80
2018-11-07T13:14:32.328Z,18.90
2018-11-07T13:17:03.689Z,19.00
2018-11-07T13:19:34.979Z,18.80
2018-11-07T13:22:06.137Z,18.90
2018-11-07T13:24:37.445Z,19.10
2018-11-07T13:27:08.407Z,19.20
2018-11-07T13:29:39.518Z,19.40
2018-11-07T13:32:10.928Z,19.40
2018-11-07T13:34:41.927Z,19.70
2018-11-07T13:37:13.080Z,19.90
2018-11-07T13:39:44.459Z,19.50
2018-11-07T13:42:15.370Z,19.40
2018-11-07T13:44:46.312Z,19.00
2018-11-07T13:47:17.272Z,19.10
2018-11-07T13:49:48.512Z,18.80
2018-11-07T13:52:19.405Z,18.70
2018-11-07T13:54:50.448Z,18.60
2018-11-07T13:57:21.349Z,18.90
2018-11-07T13:59:52.237Z,18.80
2018-11-07T14:02:23.174Z,18.60
2018-11-07T14:04:54.434Z,18.60
2018-11-07T14:07:25.715Z,18.80
2018-11-07T14:09:56.946Z,18.70
2018-11-07T14:12:27.867Z,18.60
2018-11-07T14:14:58.820Z,18.30
2018-11-07T14:17:30.020Z,18.10
2018-11-07T14:20:01.169Z,18.10
2018-11-07T14:22:32.437Z,17.90
2018-11-07T14:25:03.407Z,18.10
2018-11-07T14:27:34.471Z,18.10
2018-11-07T14:30:07.904Z,18.00
2018-11-07T14:32:40.083Z,18.00
2018-11-07T14:35:11.025Z,17.80
2018-11-07T14:37:42.090Z,17.80
2018-11-07T14:40:13.234Z,17.30
2018-11-07T14:42:44.424Z,16.90
2018-11-07T14:45:15.312Z,16.60
2018-11-07T14:47:46.282Z,16.40
2018-11-07T14:50:17.120Z,16.20
2018-11-07T14:52:48.131Z,16.10
2018-11-07T14:55:19.032Z,15.90
2018-11-07T14:57:49.931Z,15.40
2018-11-07T15:00:20.881Z,15.10
2018-11-07T15:02:51.912Z,14.70
2018-11-07T15:05:22.748Z,14.30
2018-11-07T15:07:53.721Z,13.90
2018-11-07T15:10:25.053Z,13.50
2018-11-07T15:12:55.921Z,13.40
2018-11-07T15:15:26.809Z,13.20
2018-11-07T15:17:57.732Z,13.00
2018-11-07T15:20:28.634Z,12.80
2018-11-07T15:22:59.590Z,12.50
2018-11-07T15:25:30.480Z,12.20
2018-11-07T15:28:01.459Z,11.90
2018-11-07T15:30:32.347Z,11.50
2018-11-07T15:33:03.621Z,11.30
2018-11-07T15:35:34.529Z,11.00
2018-11-07T15:38:05.575Z,10.70
2018-11-07T15:40:36.535Z,10.50
2018-11-07T15:43:07.518Z,10.30
2018-11-07T15:45:38.749Z,10.10
2018-11-07T15:48:09.625Z,9.90
2018-11-07T15:50:57.645Z,9.80
2018-11-07T15:53:28.998Z,9.70
2018-11-07T15:55:59.868Z,9.50
2018-11-07T15:58:30.763Z,9.50
2018-11-07T16:01:01.634Z,9.40
2018-11-07T16:03:51.230Z,9.30
2018-11-07T16:06:22.201Z,9.20
2018-11-07T16:08:53.038Z,9.10
2018-11-07T16:11:24.818Z,9.00
2018-11-07T16:13:56.014Z,8.90
2018-11-07T16:16:28.110Z,8.80
2018-11-07T16:18:59.099Z,8.70
2018-11-07T16:21:30.261Z,8.60
2018-11-07T16:24:01.201Z,8.50
2018-11-07T16:26:32.016Z,8.40
2018-11-07T16:29:02.908Z,8.10
2018-11-07T16:31:33.770Z,8.00
2018-11-07T16:34:04.665Z,7.80
2018-11-07T16:36:35.595Z,7.70
2018-11-07T16:39:09.234Z,7.80
2018-11-07T16:41:40.320Z,7.70
2018-11-07T16:44:11.708Z,7.60
2018-11-07T16:46:42.879Z,7.50
2018-11-07T16:49:14.417Z,7.40
2018-11-07T16:51:45.313Z,7.30
2018-11-07T16:54:22.170Z,7.40
2018-11-07T16:56:53.086Z,7.10
2018-11-07T16:59:24.441Z,7.00
2018-11-07T17:01:55.342Z,6.90
2018-11-07T17:04:26.638Z,7.00
2018-11-07T17:06:57.557Z,7.00
2018-11-07T17:09:28.411Z,7.00
2018-11-07T17:11:59.293Z,7.10
2018-11-07T17:14:30.494Z,7.10
2018-11-07T17:17:01.460Z,7.40
2018-11-07T17:19:32.370Z,9.00
2018-11-07T17:22:03.274Z,7.70
2018-11-07T17:24:34.371Z,7.90
2018-11-07T17:27:05.118Z,8.00
2018-11-07T17:29:36.069Z,7.90
2018-11-07T17:32:07.093Z,7.90
2018-11-07T17:34:37.976Z,7.80
2018-11-07T17:37:08.878Z,7.60
2018-11-07T17:39:39.705Z,7.40
2018-11-07T17:42:10.593Z,7.30
2018-11-07T17:44:41.623Z,7.20
2018-11-07T17:47:12.524Z,7.20
2018-11-07T17:49:43.668Z,7.30
2018-11-07T17:52:14.529Z,7.30
2018-11-07T17:54:45.406Z,7.30
2018-11-07T17:57:16.276Z,7.20
2018-11-07T17:59:47.383Z,7.20
2018-11-07T18:02:18.268Z,7.10
2018-11-07T18:04:50.433Z,7.40
2018-11-07T18:07:21.332Z,7.50
2018-11-07T18:09:52.982Z,7.50
2018-11-07T18:12:23.782Z,7.30
2018-11-07T18:14:54.704Z,7.20
2018-11-07T18:17:25.949Z,7.10
2018-11-07T18:19:57.198Z,7.10
2018-11-07T18:22:28.440Z,7.20
2018-11-07T18:24:59.813Z,7.10
2018-11-07T18:27:30.744Z,7.00
2018-11-07T18:30:01.985Z,7.00
2018-11-07T18:32:32.943Z,7.00
2018-11-07T18:35:03.894Z,7.20
2018-11-07T18:37:34.773Z,7.10
2018-11-07T18:40:07.194Z,7.10
2018-11-07T18:42:38.456Z,4.60
2018-11-07T18:45:11.080Z,6.80
2018-11-07T18:47:43.362Z,6.70
2018-11-07T18:50:15.702Z,6.60
2018-11-07T18:52:47.052Z,6.80
2018-11-07T18:55:18.501Z,7.20
2018-11-07T18:57:49.422Z,7.30
2018-11-07T19:00:21.143Z,7.20
2018-11-07T19:02:52.097Z,7.10
2018-11-07T19:05:23.364Z,7.00
2018-11-07T19:07:54.322Z,7.10
2018-11-07T19:10:25.247Z,7.20
2018-11-07T19:12:56.139Z,7.10
2018-11-07T19:15:27.049Z,7.00
2018-11-07T19:17:57.993Z,7.20
2018-11-07T19:20:29.205Z,7.10
2018-11-07T19:23:00.441Z,7.00
2018-11-07T19:25:31.376Z,7.00
2018-11-07T19:28:03.037Z,7.20
2018-11-07T19:30:35.210Z,7.10
2018-11-07T19:33:06.238Z,7.00
2018-11-07T19:35:37.107Z,6.80
2018-11-07T19:38:08.367Z,6.50
2018-11-07T19:40:39.687Z,6.30
2018-11-07T19:43:11.015Z,6.30
2018-11-07T19:45:41.941Z,6.20
2018-11-07T19:48:13.236Z,6.10
2018-11-07T19:50:44.651Z,6.00
2018-11-07T19:53:15.712Z,6.00
2018-11-07T19:55:47.037Z,5.90
2018-11-07T19:58:18.400Z,5.90
2018-11-07T20:00:49.849Z,5.80
2018-11-07T20:03:20.773Z,5.70
2018-11-07T20:05:52.120Z,5.70
2018-11-07T20:08:23.075Z,5.90
2018-11-07T20:10:54.255Z,6.00
2018-11-07T20:13:25.204Z,6.00
2018-11-07T20:15:56.270Z,5.90
2018-11-07T20:18:27.236Z,5.90
2018-11-07T20:20:58.153Z,5.80
2018-11-07T20:23:29.941Z,5.80
2018-11-07T20:26:00.896Z,5.70
2018-11-07T20:28:31.984Z,5.70
2018-11-07T20:31:03.219Z,5.60
2018-11-07T20:33:35.341Z,5.60
2018-11-07T20:36:06.851Z,5.60
2018-11-07T20:38:37.860Z,5.50
2018-11-07T20:41:09.031Z,5.50
2018-11-07T20:43:40.322Z,5.40
2018-11-07T20:46:11.300Z,5.30
2018-11-07T20:48:42.289Z,5.40
2018-11-07T20:51:13.185Z,5.40
2018-11-07T20:53:44.131Z,5.30
2018-11-07T20:56:15.618Z,5.30
2018-11-07T20:58:46.583Z,5.30
2018-11-07T21:01:17.601Z,5.30
2018-11-07T21:03:48.649Z,5.20
2018-11-07T21:06:19.826Z,5.30
2018-11-07T21:08:51.432Z,5.20
2018-11-07T21:11:22.476Z,5.20
2018-11-07T21:13:53.693Z,5.20
2018-11-07T21:16:24.877Z,5.20
2018-11-07T21:18:55.856Z,5.20
2018-11-07T21:21:26.979Z,5.10
2018-11-07T21:23:57.882Z,5.10
2018-11-07T21:26:28.840Z,5.10
2018-11-07T21:29:00.056Z,5.10
2018-11-07T21:31:31.852Z,5.10
2018-11-07T21:34:03.461Z,5.10
2018-11-07T21:36:34.372Z,5.00
2018-11-07T21:39:07.779Z,5.00
2018-11-07T21:41:38.967Z,4.90
2018-11-07T21:44:09.966Z,4.90
2018-11-07T21:46:40.934Z,4.80
2018-11-07T21:49:11.882Z,4.80
2018-11-07T21:51:43.531Z,4.80
2018-11-07T21:54:14.858Z,4.70
2018-11-07T21:56:46.050Z,4.70
2018-11-07T21:59:17.003Z,4.60
2018-11-07T22:01:48.092Z,4.60
2018-11-07T22:04:18.984Z,4.50
2018-11-07T22:06:50.060Z,4.50
2018-11-07T22:09:22.129Z,4.50
2018-11-07T22:11:53.007Z,4.50
2018-11-07T22:14:24.018Z,4.40
2018-11-07T22:16:55.057Z,4.50
2018-11-07T22:19:26.324Z,4.40
2018-11-07T22:21:57.351Z,4.40
2018-11-07T22:24:28.296Z,3.80
2018-11-07T22:26:59.321Z,4.30
2018-11-07T22:29:30.305Z,4.20
2018-11-07T22:32:01.691Z,4.20
2018-11-07T22:34:33.023Z,4.10
2018-11-07T22:37:04.372Z,4.10
2018-11-07T22:39:35.389Z,4.10
2018-11-07T22:42:07.557Z,4.20
2018-11-07T22:44:38.835Z,4.20
2018-11-07T22:47:09.835Z,4.20
2018-11-07T22:49:41.667Z,4.20
2018-11-07T22:52:12.634Z,4.20
2018-11-07T22:54:43.927Z,4.10
2018-11-07T22:57:14.904Z,4.10
2018-11-07T22:59:45.910Z,4.10
2018-11-07T23:02:16.860Z,4.00
2018-11-07T23:04:48.043Z,3.80
2018-11-07T23:07:19.014Z,3.70
2018-11-07T23:09:50.005Z,3.60
2018-11-07T23:12:21.488Z,3.60
2018-11-07T23:14:52.857Z,3.60
2018-11-07T23:17:23.804Z,3.70
2018-11-07T23:19:55.033Z,3.80
2018-11-07T23:22:25.975Z,3.80
2018-11-07T23:24:57.010Z,3.80
2018-11-07T23:27:27.946Z,3.90
2018-11-07T23:29:58.908Z,3.90
2018-11-07T23:32:29.874Z,3.90
2018-11-07T23:35:01.304Z,3.90
2018-11-07T23:37:32.310Z,3.80
2018-11-07T23:40:03.567Z,3.80
2018-11-07T23:42:34.797Z,3.70
2018-11-07T23:45:06.445Z,3.70
2018-11-07T23:47:37.822Z,3.80
2018-11-07T23:50:09.933Z,3.90
2018-11-07T23:52:51.056Z,4.00
2018-11-07T23:55:23.326Z,4.20
2018-11-07T23:57:54.976Z,4.20
